sensor_id;sensor_type;location;lat;lon;timestamp;P1;durP1;ratioP1;P2;durP2;ratioP2
18360;SDS011;9308;48.550;9.108;2023-02-28T00:01:08;5.60;;;5.20;;
18360;SDS011;9308;48.550;9.108;2023-02-28T00:03:34;5.30;;;4.90;;
18360;SDS011;9308;48.550;9.108;2023-02-28T00:06:01;5.80;;;5.40;;
18360;SDS011;9308;48.550;9.108;2023-02-28T00:08:28;5.17;;;4.80;;
18360;SDS011;9308;48.550;9.108;2023-02-28T00:10:53;5.53;;;5.10;;
18360;SDS011;9308;48.550;9.108;2023-02-28T00:13:20;6.20;;;5.60;;
18360;SDS011;9308;48.550;9.108;2023-02-28T00:15:45;6.17;;;5.03;;
18360;SDS011;9308;48.550;9.108;2023-02-28T00:18:11;5.80;;;5.30;;
18360;SDS011;9308;48.550;9.108;2023-02-28T00:20:37;5.80;;;5.30;;
18360;SDS011;9308;48.550;9.108;2023-02-28T00:23:02;5.40;;;4.90;;
18360;SDS011;9308;48.550;9.108;2023-02-28T00:25:28;5.60;;;5.20;;
18360;SDS011;9308;48.550;9.108;2023-02-28T00:27:53;6.00;;;5.27;;
18360;SDS011;9308;48.550;9.108;2023-02-28T00:30:20;5.73;;;5.23;;
18360;SDS011;9308;48.550;9.108;2023-02-28T00:32:47;6.27;;;5.77;;
18360;SDS011;9308;48.550;9.108;2023-02-28T00:35:13;6.00;;;5.50;;
18360;SDS011;9308;48.550;9.108;2023-02-28T00:37:39;5.50;;;5.10;;
18360;SDS011;9308;48.550;9.108;2023-02-28T00:40:05;5.80;;;5.30;;
18360;SDS011;9308;48.550;9.108;2023-02-28T00:42:31;5.60;;;5.20;;
18360;SDS011;9308;48.550;9.108;2023-02-28T00:44:57;5.90;;;5.40;;
18360;SDS011;9308;48.550;9.108;2023-02-28T00:47:23;6.00;;;5.53;;
18360;SDS011;9308;48.550;9.108;2023-02-28T00:49:48;5.97;;;5.50;;
18360;SDS011;9308;48.550;9.108;2023-02-28T00:52:13;5.80;;;5.30;;
18360;SDS011;9308;48.550;9.108;2023-02-28T00:54:39;5.40;;;5.00;;
18360;SDS011;9308;48.550;9.108;2023-02-28T00:57:04;5.50;;;5.00;;
18360;SDS011;9308;48.550;9.108;2023-02-28T00:59:30;6.03;;;5.43;;
18360;SDS011;9308;48.550;9.108;2023-02-28T01:01:55;5.87;;;5.47;;
18360;SDS011;9308;48.550;9.108;2023-02-28T01:04:21;5.70;;;5.17;;
18360;SDS011;9308;48.550;9.108;2023-02-28T01:06:47;5.63;;;5.13;;
18360;SDS011;9308;48.550;9.108;2023-02-28T01:09:12;5.73;;;5.23;;
18360;SDS011;9308;48.550;9.108;2023-02-28T01:11:37;5.80;;;5.30;;
18360;SDS011;9308;48.550;9.108;2023-02-28T01:14:04;5.83;;;5.43;;
18360;SDS011;9308;48.550;9.108;2023-02-28T01:16:30;6.50;;;5.90;;
18360;SDS011;9308;48.550;9.108;2023-02-28T01:18:55;8.10;;;6.20;;
18360;SDS011;9308;48.550;9.108;2023-02-28T01:21:21;6.20;;;5.70;;
18360;SDS011;9308;48.550;9.108;2023-02-28T01:23:47;6.80;;;5.30;;
18360;SDS011;9308;48.550;9.108;2023-02-28T01:26:18;5.70;;;5.20;;
18360;SDS011;9308;48.550;9.108;2023-02-28T01:28:47;6.03;;;5.53;;
18360;SDS011;9308;48.550;9.108;2023-02-28T01:31:14;5.40;;;4.90;;
18360;SDS011;9308;48.550;9.108;2023-02-28T01:33:39;6.40;;;5.27;;
18360;SDS011;9308;48.550;9.108;2023-02-28T01:36:12;5.57;;;5.27;;
18360;SDS011;9308;48.550;9.108;2023-02-28T01:38:40;7.90;;;5.63;;
18360;SDS011;9308;48.550;9.108;2023-02-28T01:41:06;5.93;;;5.43;;
18360;SDS011;9308;48.550;9.108;2023-02-28T01:43:51;5.63;;;5.23;;
18360;SDS011;9308;48.550;9.108;2023-02-28T01:46:22;5.13;;;4.73;;
18360;SDS011;9308;48.550;9.108;2023-02-28T01:48:52;6.00;;;5.50;;
18360;SDS011;9308;48.550;9.108;2023-02-28T01:51:22;9.20;;;5.73;;
18360;SDS011;9308;48.550;9.108;2023-02-28T01:54:01;5.63;;;5.10;;
18360;SDS011;9308;48.550;9.108;2023-02-28T01:56:31;6.13;;;5.63;;
18360;SDS011;9308;48.550;9.108;2023-02-28T01:59:00;5.90;;;5.40;;
18360;SDS011;9308;48.550;9.108;2023-02-28T02:01:26;6.20;;;5.70;;
18360;SDS011;9308;48.550;9.108;2023-02-28T02:03:54;5.63;;;5.23;;
18360;SDS011;9308;48.550;9.108;2023-02-28T02:06:23;6.50;;;6.00;;
18360;SDS011;9308;48.550;9.108;2023-02-28T02:08:52;6.23;;;5.63;;
18360;SDS011;9308;48.550;9.108;2023-02-28T02:11:18;6.27;;;5.67;;
18360;SDS011;9308;48.550;9.108;2023-02-28T02:27:08;6.60;;;6.00;;
18360;SDS011;9308;48.550;9.108;2023-02-28T02:38:15;6.63;;;6.13;;
18360;SDS011;9308;48.550;9.108;2023-02-28T02:40:57;7.03;;;6.53;;
18360;SDS011;9308;48.550;9.108;2023-02-28T02:43:32;6.90;;;6.40;;
18360;SDS011;9308;48.550;9.108;2023-02-28T02:45:59;7.33;;;6.33;;
18360;SDS011;9308;48.550;9.108;2023-02-28T02:48:31;6.27;;;5.77;;
18360;SDS011;9308;48.550;9.108;2023-02-28T02:50:59;6.60;;;6.10;;
18360;SDS011;9308;48.550;9.108;2023-02-28T02:53:30;6.70;;;6.00;;
18360;SDS011;9308;48.550;9.108;2023-02-28T02:56:00;7.47;;;6.87;;
18360;SDS011;9308;48.550;9.108;2023-02-28T02:58:31;6.80;;;6.20;;
18360;SDS011;9308;48.550;9.108;2023-02-28T03:01:06;7.50;;;6.83;;
18360;SDS011;9308;48.550;9.108;2023-02-28T03:03:35;7.87;;;7.27;;
18360;SDS011;9308;48.550;9.108;2023-02-28T03:06:02;7.10;;;6.50;;
18360;SDS011;9308;48.550;9.108;2023-02-28T03:08:29;6.80;;;6.27;;
18360;SDS011;9308;48.550;9.108;2023-02-28T03:11:02;6.93;;;6.43;;
18360;SDS011;9308;48.550;9.108;2023-02-28T03:21:56;7.13;;;6.53;;
18360;SDS011;9308;48.550;9.108;2023-02-28T03:24:47;7.00;;;6.50;;
18360;SDS011;9308;48.550;9.108;2023-02-28T03:27:23;7.63;;;6.90;;
18360;SDS011;9308;48.550;9.108;2023-02-28T03:30:04;7.50;;;6.90;;
18360;SDS011;9308;48.550;9.108;2023-02-28T03:33:21;7.90;;;7.20;;
18360;SDS011;9308;48.550;9.108;2023-02-28T03:35:24;7.13;;;6.50;;
18360;SDS011;9308;48.550;9.108;2023-02-28T03:37:55;7.80;;;7.20;;
18360;SDS011;9308;48.550;9.108;2023-02-28T03:40:27;7.70;;;7.00;;
18360;SDS011;9308;48.550;9.108;2023-02-28T03:42:58;7.80;;;7.10;;
18360;SDS011;9308;48.550;9.108;2023-02-28T03:45:30;8.43;;;7.73;;
18360;SDS011;9308;48.550;9.108;2023-02-28T03:48:21;7.50;;;6.80;;
18360;SDS011;9308;48.550;9.108;2023-02-28T03:50:52;7.87;;;7.20;;
18360;SDS011;9308;48.550;9.108;2023-02-28T03:56:06;7.87;;;7.27;;
18360;SDS011;9308;48.550;9.108;2023-02-28T03:58:49;8.00;;;7.30;;
18360;SDS011;9308;48.550;9.108;2023-02-28T04:01:21;8.17;;;7.40;;
18360;SDS011;9308;48.550;9.108;2023-02-28T04:04:08;7.40;;;6.80;;
18360;SDS011;9308;48.550;9.108;2023-02-28T04:06:35;7.20;;;6.60;;
18360;SDS011;9308;48.550;9.108;2023-02-28T04:09:02;8.17;;;7.57;;
18360;SDS011;9308;48.550;9.108;2023-02-28T04:13:59;8.00;;;7.23;;
18360;SDS011;9308;48.550;9.108;2023-02-28T04:16:25;7.63;;;7.03;;
18360;SDS011;9308;48.550;9.108;2023-02-28T04:18:51;8.50;;;7.90;;
18360;SDS011;9308;48.550;9.108;2023-02-28T04:21:17;7.40;;;6.87;;
18360;SDS011;9308;48.550;9.108;2023-02-28T04:23:45;8.40;;;7.70;;
18360;SDS011;9308;48.550;9.108;2023-02-28T04:26:11;8.50;;;7.80;;
18360;SDS011;9308;48.550;9.108;2023-02-28T04:28:37;8.00;;;7.40;;
18360;SDS011;9308;48.550;9.108;2023-02-28T04:31:04;8.20;;;7.60;;
18360;SDS011;9308;48.550;9.108;2023-02-28T04:33:30;8.23;;;7.53;;
18360;SDS011;9308;48.550;9.108;2023-02-28T04:36:03;8.50;;;7.80;;
18360;SDS011;9308;48.550;9.108;2023-02-28T04:38:33;8.43;;;7.80;;
18360;SDS011;9308;48.550;9.108;2023-02-28T04:41:03;8.83;;;8.03;;
18360;SDS011;9308;48.550;9.108;2023-02-28T04:43:29;9.13;;;8.30;;
18360;SDS011;9308;48.550;9.108;2023-02-28T04:45:55;8.80;;;8.10;;
18360;SDS011;9308;48.550;9.108;2023-02-28T04:48:25;9.47;;;8.50;;
18360;SDS011;9308;48.550;9.108;2023-02-28T04:50:53;8.67;;;7.97;;
18360;SDS011;9308;48.550;9.108;2023-02-28T04:53:18;8.87;;;8.07;;
18360;SDS011;9308;48.550;9.108;2023-02-28T04:55:44;8.60;;;7.90;;
18360;SDS011;9308;48.550;9.108;2023-02-28T04:58:10;8.40;;;7.70;;
18360;SDS011;9308;48.550;9.108;2023-02-28T05:00:35;9.10;;;8.30;;
18360;SDS011;9308;48.550;9.108;2023-02-28T05:03:01;8.40;;;7.70;;
18360;SDS011;9308;48.550;9.108;2023-02-28T05:05:26;8.60;;;8.00;;
18360;SDS011;9308;48.550;9.108;2023-02-28T05:07:52;9.10;;;8.40;;
18360;SDS011;9308;48.550;9.108;2023-02-28T05:10:18;9.33;;;8.53;;
18360;SDS011;9308;48.550;9.108;2023-02-28T05:12:44;9.17;;;8.23;;
18360;SDS011;9308;48.550;9.108;2023-02-28T05:15:14;9.73;;;8.80;;
18360;SDS011;9308;48.550;9.108;2023-02-28T05:17:41;10.00;;;9.20;;
18360;SDS011;9308;48.550;9.108;2023-02-28T05:20:07;9.70;;;8.90;;
18360;SDS011;9308;48.550;9.108;2023-02-28T05:22:36;9.03;;;8.33;;
18360;SDS011;9308;48.550;9.108;2023-02-28T05:25:03;10.50;;;9.40;;
18360;SDS011;9308;48.550;9.108;2023-02-28T05:27:29;10.30;;;9.43;;
18360;SDS011;9308;48.550;9.108;2023-02-28T05:29:55;10.20;;;9.30;;
18360;SDS011;9308;48.550;9.108;2023-02-28T05:32:21;10.00;;;9.20;;
18360;SDS011;9308;48.550;9.108;2023-02-28T05:34:46;9.30;;;8.50;;
18360;SDS011;9308;48.550;9.108;2023-02-28T05:37:12;10.03;;;9.20;;
18360;SDS011;9308;48.550;9.108;2023-02-28T05:39:39;10.07;;;9.27;;
18360;SDS011;9308;48.550;9.108;2023-02-28T05:42:04;9.50;;;8.70;;
18360;SDS011;9308;48.550;9.108;2023-02-28T05:44:30;10.93;;;9.40;;
18360;SDS011;9308;48.550;9.108;2023-02-28T05:46:56;10.90;;;9.80;;
18360;SDS011;9308;48.550;9.108;2023-02-28T05:49:21;9.43;;;8.63;;
18360;SDS011;9308;48.550;9.108;2023-02-28T05:51:47;10.70;;;9.77;;
18360;SDS011;9308;48.550;9.108;2023-02-28T05:54:12;10.73;;;9.83;;
18360;SDS011;9308;48.550;9.108;2023-02-28T05:56:38;10.43;;;9.43;;
18360;SDS011;9308;48.550;9.108;2023-02-28T05:59:09;9.70;;;8.80;;
18360;SDS011;9308;48.550;9.108;2023-02-28T06:01:39;10.57;;;9.67;;
18360;SDS011;9308;48.550;9.108;2023-02-28T06:04:07;10.37;;;9.43;;
18360;SDS011;9308;48.550;9.108;2023-02-28T06:06:34;11.53;;;10.37;;
18360;SDS011;9308;48.550;9.108;2023-02-28T06:09:01;10.77;;;9.80;;
18360;SDS011;9308;48.550;9.108;2023-02-28T06:11:27;10.03;;;9.20;;
18360;SDS011;9308;48.550;9.108;2023-02-28T06:13:53;10.13;;;9.33;;
18360;SDS011;9308;48.550;9.108;2023-02-28T06:16:21;10.33;;;9.43;;
18360;SDS011;9308;48.550;9.108;2023-02-28T06:18:47;11.90;;;10.90;;
18360;SDS011;9308;48.550;9.108;2023-02-28T06:21:13;10.47;;;9.47;;
18360;SDS011;9308;48.550;9.108;2023-02-28T06:23:38;11.37;;;10.37;;
18360;SDS011;9308;48.550;9.108;2023-02-28T06:26:04;12.63;;;10.77;;
18360;SDS011;9308;48.550;9.108;2023-02-28T06:28:30;10.73;;;9.77;;
18360;SDS011;9308;48.550;9.108;2023-02-28T06:30:55;11.20;;;10.20;;
18360;SDS011;9308;48.550;9.108;2023-02-28T06:33:20;11.00;;;10.20;;
18360;SDS011;9308;48.550;9.108;2023-02-28T06:35:47;11.70;;;10.50;;
18360;SDS011;9308;48.550;9.108;2023-02-28T06:38:15;10.37;;;9.40;;
18360;SDS011;9308;48.550;9.108;2023-02-28T06:40:40;11.10;;;10.10;;
18360;SDS011;9308;48.550;9.108;2023-02-28T06:43:06;12.13;;;11.10;;
18360;SDS011;9308;48.550;9.108;2023-02-28T06:45:32;10.67;;;9.57;;
18360;SDS011;9308;48.550;9.108;2023-02-28T06:47:57;11.00;;;10.00;;
18360;SDS011;9308;48.550;9.108;2023-02-28T06:50:23;11.37;;;10.27;;
18360;SDS011;9308;48.550;9.108;2023-02-28T06:52:48;11.40;;;10.30;;
18360;SDS011;9308;48.550;9.108;2023-02-28T06:55:19;10.70;;;9.80;;
18360;SDS011;9308;48.550;9.108;2023-02-28T06:57:44;11.90;;;10.70;;
18360;SDS011;9308;48.550;9.108;2023-02-28T07:00:10;12.93;;;11.73;;
18360;SDS011;9308;48.550;9.108;2023-02-28T07:02:36;12.03;;;10.77;;
18360;SDS011;9308;48.550;9.108;2023-02-28T07:05:03;12.30;;;11.17;;
18360;SDS011;9308;48.550;9.108;2023-02-28T07:07:29;11.67;;;10.67;;
18360;SDS011;9308;48.550;9.108;2023-02-28T07:09:55;11.90;;;10.90;;
18360;SDS011;9308;48.550;9.108;2023-02-28T07:12:21;12.10;;;11.00;;
18360;SDS011;9308;48.550;9.108;2023-02-28T07:14:47;11.80;;;10.80;;
18360;SDS011;9308;48.550;9.108;2023-02-28T07:17:12;12.23;;;11.23;;
18360;SDS011;9308;48.550;9.108;2023-02-28T07:19:38;13.00;;;11.87;;
18360;SDS011;9308;48.550;9.108;2023-02-28T07:22:04;12.63;;;11.47;;
18360;SDS011;9308;48.550;9.108;2023-02-28T07:24:29;12.87;;;11.67;;
18360;SDS011;9308;48.550;9.108;2023-02-28T07:26:55;13.73;;;12.10;;
18360;SDS011;9308;48.550;9.108;2023-02-28T07:29:21;13.60;;;12.23;;
18360;SDS011;9308;48.550;9.108;2023-02-28T07:31:47;15.80;;;12.80;;
18360;SDS011;9308;48.550;9.108;2023-02-28T07:34:13;12.90;;;11.80;;
18360;SDS011;9308;48.550;9.108;2023-02-28T07:36:38;13.43;;;12.13;;
18360;SDS011;9308;48.550;9.108;2023-02-28T07:39:04;12.53;;;11.33;;
18360;SDS011;9308;48.550;9.108;2023-02-28T07:41:30;13.87;;;12.57;;
18360;SDS011;9308;48.550;9.108;2023-02-28T07:43:58;14.30;;;13.00;;
18360;SDS011;9308;48.550;9.108;2023-02-28T07:46:25;13.47;;;12.27;;
18360;SDS011;9308;48.550;9.108;2023-02-28T07:48:51;12.83;;;11.60;;
18360;SDS011;9308;48.550;9.108;2023-02-28T07:51:16;14.80;;;13.30;;
18360;SDS011;9308;48.550;9.108;2023-02-28T07:53:42;15.03;;;13.70;;
18360;SDS011;9308;48.550;9.108;2023-02-28T07:56:08;13.67;;;12.37;;
18360;SDS011;9308;48.550;9.108;2023-02-28T07:58:33;17.73;;;15.87;;
18360;SDS011;9308;48.550;9.108;2023-02-28T08:01:08;17.00;;;15.40;;
18360;SDS011;9308;48.550;9.108;2023-02-28T08:03:35;15.87;;;14.33;;
18360;SDS011;9308;48.550;9.108;2023-02-28T08:06:02;22.40;;;20.00;;
18360;SDS011;9308;48.550;9.108;2023-02-28T08:08:28;18.90;;;17.07;;
18360;SDS011;9308;48.550;9.108;2023-02-28T08:11:00;17.40;;;15.80;;
18360;SDS011;9308;48.550;9.108;2023-02-28T08:13:27;17.27;;;15.57;;
18360;SDS011;9308;48.550;9.108;2023-02-28T08:15:54;15.07;;;13.70;;
18360;SDS011;9308;48.550;9.108;2023-02-28T08:18:21;15.27;;;13.87;;
18360;SDS011;9308;48.550;9.108;2023-02-28T08:20:47;16.20;;;14.60;;
18360;SDS011;9308;48.550;9.108;2023-02-28T08:23:12;15.20;;;13.63;;
18360;SDS011;9308;48.550;9.108;2023-02-28T08:25:38;18.70;;;14.60;;
18360;SDS011;9308;48.550;9.108;2023-02-28T08:28:04;13.40;;;12.10;;
18360;SDS011;9308;48.550;9.108;2023-02-28T08:30:29;14.67;;;13.43;;
18360;SDS011;9308;48.550;9.108;2023-02-28T08:32:54;14.77;;;13.33;;
18360;SDS011;9308;48.550;9.108;2023-02-28T08:35:21;15.40;;;14.00;;
18360;SDS011;9308;48.550;9.108;2023-02-28T08:37:49;15.77;;;14.27;;
18360;SDS011;9308;48.550;9.108;2023-02-28T08:40:15;13.70;;;12.50;;
18360;SDS011;9308;48.550;9.108;2023-02-28T08:42:44;14.73;;;12.80;;
18360;SDS011;9308;48.550;9.108;2023-02-28T08:45:10;13.50;;;12.10;;
18360;SDS011;9308;48.550;9.108;2023-02-28T08:47:36;14.60;;;13.30;;
18360;SDS011;9308;48.550;9.108;2023-02-28T08:50:01;14.17;;;12.60;;
18360;SDS011;9308;48.550;9.108;2023-02-28T08:52:27;15.40;;;13.93;;
18360;SDS011;9308;48.550;9.108;2023-02-28T08:54:53;14.23;;;12.67;;
18360;SDS011;9308;48.550;9.108;2023-02-28T08:57:19;14.43;;;13.07;;
18360;SDS011;9308;48.550;9.108;2023-02-28T08:59:44;15.13;;;13.53;;
18360;SDS011;9308;48.550;9.108;2023-02-28T09:02:12;13.77;;;12.47;;
18360;SDS011;9308;48.550;9.108;2023-02-28T09:04:39;13.90;;;12.60;;
18360;SDS011;9308;48.550;9.108;2023-02-28T09:07:05;14.90;;;13.40;;
18360;SDS011;9308;48.550;9.108;2023-02-28T09:09:31;14.60;;;13.40;;
18360;SDS011;9308;48.550;9.108;2023-02-28T09:11:57;13.47;;;12.27;;
18360;SDS011;9308;48.550;9.108;2023-02-28T09:14:23;14.83;;;13.40;;
18360;SDS011;9308;48.550;9.108;2023-02-28T09:16:48;15.23;;;13.67;;
18360;SDS011;9308;48.550;9.108;2023-02-28T09:19:14;13.73;;;12.33;;
18360;SDS011;9308;48.550;9.108;2023-02-28T09:21:40;16.13;;;14.03;;
18360;SDS011;9308;48.550;9.108;2023-02-28T09:24:05;14.00;;;12.57;;
18360;SDS011;9308;48.550;9.108;2023-02-28T09:26:31;15.33;;;13.73;;
18360;SDS011;9308;48.550;9.108;2023-02-28T09:28:56;14.90;;;13.40;;
18360;SDS011;9308;48.550;9.108;2023-02-28T09:31:25;14.23;;;12.93;;
18360;SDS011;9308;48.550;9.108;2023-02-28T09:33:53;13.60;;;12.40;;
18360;SDS011;9308;48.550;9.108;2023-02-28T09:36:21;14.47;;;12.97;;
18360;SDS011;9308;48.550;9.108;2023-02-28T09:38:47;14.70;;;13.30;;
18360;SDS011;9308;48.550;9.108;2023-02-28T09:41:17;14.10;;;12.77;;
18360;SDS011;9308;48.550;9.108;2023-02-28T09:43:50;14.20;;;12.90;;
18360;SDS011;9308;48.550;9.108;2023-02-28T09:49:12;14.53;;;13.13;;
18360;SDS011;9308;48.550;9.108;2023-02-28T09:54:17;15.43;;;13.93;;
18360;SDS011;9308;48.550;9.108;2023-02-28T09:56:45;16.17;;;13.40;;
18360;SDS011;9308;48.550;9.108;2023-02-28T10:02:01;14.20;;;12.73;;
18360;SDS011;9308;48.550;9.108;2023-02-28T10:04:59;13.53;;;12.30;;
18360;SDS011;9308;48.550;9.108;2023-02-28T10:07:37;13.83;;;12.50;;
18360;SDS011;9308;48.550;9.108;2023-02-28T10:10:26;13.87;;;12.57;;
18360;SDS011;9308;48.550;9.108;2023-02-28T10:12:58;14.67;;;13.27;;
18360;SDS011;9308;48.550;9.108;2023-02-28T10:15:27;13.70;;;12.40;;
18360;SDS011;9308;48.550;9.108;2023-02-28T10:18:05;14.87;;;13.47;;
18360;SDS011;9308;48.550;9.108;2023-02-28T10:20:37;14.47;;;12.70;;
18360;SDS011;9308;48.550;9.108;2023-02-28T10:23:17;14.43;;;13.13;;
18360;SDS011;9308;48.550;9.108;2023-02-28T10:25:54;13.40;;;12.20;;
18360;SDS011;9308;48.550;9.108;2023-02-28T10:28:24;13.40;;;12.00;;
18360;SDS011;9308;48.550;9.108;2023-02-28T10:30:51;13.43;;;12.07;;
18360;SDS011;9308;48.550;9.108;2023-02-28T10:33:31;13.53;;;12.30;;
18360;SDS011;9308;48.550;9.108;2023-02-28T10:35:59;13.33;;;12.13;;
18360;SDS011;9308;48.550;9.108;2023-02-28T10:38:27;13.50;;;12.10;;
18360;SDS011;9308;48.550;9.108;2023-02-28T10:41:10;15.20;;;13.60;;
18360;SDS011;9308;48.550;9.108;2023-02-28T10:44:21;13.77;;;12.43;;
18360;SDS011;9308;48.550;9.108;2023-02-28T10:46:46;14.63;;;13.23;;
18360;SDS011;9308;48.550;9.108;2023-02-28T10:49:17;16.03;;;14.27;;
18360;SDS011;9308;48.550;9.108;2023-02-28T10:51:46;14.47;;;12.83;;
18360;SDS011;9308;48.550;9.108;2023-02-28T10:54:17;14.40;;;13.07;;
18360;SDS011;9308;48.550;9.108;2023-02-28T10:56:44;16.30;;;14.70;;
18360;SDS011;9308;48.550;9.108;2023-02-28T11:01:56;13.57;;;12.27;;
18360;SDS011;9308;48.550;9.108;2023-02-28T11:06:47;14.17;;;12.77;;
18360;SDS011;9308;48.550;9.108;2023-02-28T11:09:31;13.20;;;12.07;;
18360;SDS011;9308;48.550;9.108;2023-02-28T11:12:00;14.57;;;12.60;;
18360;SDS011;9308;48.550;9.108;2023-02-28T11:14:28;13.27;;;12.07;;
18360;SDS011;9308;48.550;9.108;2023-02-28T11:16:57;13.70;;;12.30;;
18360;SDS011;9308;48.550;9.108;2023-02-28T11:19:28;15.13;;;12.90;;
18360;SDS011;9308;48.550;9.108;2023-02-28T11:22:04;13.90;;;12.60;;
18360;SDS011;9308;48.550;9.108;2023-02-28T11:24:35;13.33;;;12.03;;
18360;SDS011;9308;48.550;9.108;2023-02-28T11:27:05;12.90;;;11.70;;
18360;SDS011;9308;48.550;9.108;2023-02-28T11:29:31;14.27;;;12.80;;
18360;SDS011;9308;48.550;9.108;2023-02-28T11:35:02;15.63;;;14.10;;
18360;SDS011;9308;48.550;9.108;2023-02-28T11:37:36;14.67;;;13.37;;
18360;SDS011;9308;48.550;9.108;2023-02-28T11:40:12;14.00;;;12.33;;
18360;SDS011;9308;48.550;9.108;2023-02-28T12:04:48;14.03;;;12.73;;
18360;SDS011;9308;48.550;9.108;2023-02-28T12:07:47;12.40;;;11.40;;
18360;SDS011;9308;48.550;9.108;2023-02-28T12:13:03;12.27;;;11.27;;
18360;SDS011;9308;48.550;9.108;2023-02-28T12:21:36;12.90;;;11.70;;
18360;SDS011;9308;48.550;9.108;2023-02-28T12:27:05;12.73;;;11.43;;
18360;SDS011;9308;48.550;9.108;2023-02-28T12:32:42;12.10;;;11.17;;
18360;SDS011;9308;48.550;9.108;2023-02-28T12:35:12;12.33;;;11.33;;
18360;SDS011;9308;48.550;9.108;2023-02-28T12:40:41;13.13;;;12.13;;
18360;SDS011;9308;48.550;9.108;2023-02-28T12:43:08;13.47;;;12.40;;
18360;SDS011;9308;48.550;9.108;2023-02-28T12:45:43;12.07;;;11.17;;
18360;SDS011;9308;48.550;9.108;2023-02-28T12:48:14;13.17;;;11.97;;
18360;SDS011;9308;48.550;9.108;2023-02-28T12:50:41;13.57;;;12.57;;
18360;SDS011;9308;48.550;9.108;2023-02-28T12:53:09;12.83;;;11.77;;
18360;SDS011;9308;48.550;9.108;2023-02-28T12:55:57;12.93;;;11.80;;
18360;SDS011;9308;48.550;9.108;2023-02-28T12:58:51;14.10;;;12.90;;
18360;SDS011;9308;48.550;9.108;2023-02-28T13:13:56;13.13;;;12.03;;
18360;SDS011;9308;48.550;9.108;2023-02-28T13:16:26;13.47;;;12.20;;
18360;SDS011;9308;48.550;9.108;2023-02-28T13:18:51;14.07;;;12.87;;
18360;SDS011;9308;48.550;9.108;2023-02-28T13:21:24;15.13;;;13.70;;
18360;SDS011;9308;48.550;9.108;2023-02-28T13:34:27;13.73;;;12.37;;
18360;SDS011;9308;48.550;9.108;2023-02-28T13:37:03;13.83;;;12.60;;
18360;SDS011;9308;48.550;9.108;2023-02-28T13:52:54;14.23;;;12.90;;
18360;SDS011;9308;48.550;9.108;2023-02-28T13:55:59;14.20;;;12.80;;
18360;SDS011;9308;48.550;9.108;2023-02-28T14:01:11;14.77;;;13.30;;
18360;SDS011;9308;48.550;9.108;2023-02-28T14:04:03;13.57;;;12.30;;
18360;SDS011;9308;48.550;9.108;2023-02-28T14:06:34;14.23;;;12.90;;
18360;SDS011;9308;48.550;9.108;2023-02-28T14:11:34;14.50;;;13.13;;
18360;SDS011;9308;48.550;9.108;2023-02-28T14:14:02;15.93;;;13.77;;
18360;SDS011;9308;48.550;9.108;2023-02-28T14:16:44;14.63;;;13.30;;
18360;SDS011;9308;48.550;9.108;2023-02-28T14:21:49;14.83;;;13.33;;
18360;SDS011;9308;48.550;9.108;2023-02-28T14:32:33;16.47;;;12.87;;
18360;SDS011;9308;48.550;9.108;2023-02-28T14:35:16;15.30;;;13.80;;
18360;SDS011;9308;48.550;9.108;2023-02-28T14:37:50;15.53;;;14.00;;
18360;SDS011;9308;48.550;9.108;2023-02-28T14:40:20;15.50;;;14.00;;
18360;SDS011;9308;48.550;9.108;2023-02-28T14:42:58;15.57;;;13.90;;
18360;SDS011;9308;48.550;9.108;2023-02-28T14:45:26;14.80;;;13.30;;
18360;SDS011;9308;48.550;9.108;2023-02-28T14:47:55;13.17;;;11.87;;
18360;SDS011;9308;48.550;9.108;2023-02-28T14:50:33;14.00;;;12.70;;
18360;SDS011;9308;48.550;9.108;2023-02-28T14:53:00;14.90;;;13.50;;
18360;SDS011;9308;48.550;9.108;2023-02-28T14:55:31;14.30;;;12.50;;
18360;SDS011;9308;48.550;9.108;2023-02-28T14:58:03;13.97;;;12.47;;
18360;SDS011;9308;48.550;9.108;2023-02-28T15:00:32;13.63;;;12.23;;
18360;SDS011;9308;48.550;9.108;2023-02-28T15:03:01;14.23;;;12.83;;
18360;SDS011;9308;48.550;9.108;2023-02-28T15:05:42;13.93;;;12.63;;
18360;SDS011;9308;48.550;9.108;2023-02-28T15:08:23;13.73;;;12.53;;
18360;SDS011;9308;48.550;9.108;2023-02-28T15:10:56;14.23;;;12.93;;
18360;SDS011;9308;48.550;9.108;2023-02-28T15:13:26;12.70;;;11.50;;
18360;SDS011;9308;48.550;9.108;2023-02-28T15:16:10;12.97;;;11.87;;
18360;SDS011;9308;48.550;9.108;2023-02-28T15:21:43;12.67;;;11.60;;
18360;SDS011;9308;48.550;9.108;2023-02-28T15:26:50;13.13;;;11.87;;
18360;SDS011;9308;48.550;9.108;2023-02-28T15:29:21;14.30;;;13.00;;
18360;SDS011;9308;48.550;9.108;2023-02-28T15:31:50;15.93;;;14.23;;
18360;SDS011;9308;48.550;9.108;2023-02-28T15:34:28;18.97;;;16.10;;
18360;SDS011;9308;48.550;9.108;2023-02-28T15:36:54;13.63;;;12.17;;
18360;SDS011;9308;48.550;9.108;2023-02-28T15:39:24;13.37;;;12.17;;
18360;SDS011;9308;48.550;9.108;2023-02-28T15:41:54;13.53;;;12.30;;
18360;SDS011;9308;48.550;9.108;2023-02-28T15:44:42;15.20;;;12.90;;
18360;SDS011;9308;48.550;9.108;2023-02-28T15:49:45;14.17;;;12.77;;
18360;SDS011;9308;48.550;9.108;2023-02-28T15:52:16;14.03;;;12.63;;
18360;SDS011;9308;48.550;9.108;2023-02-28T15:54:44;13.33;;;12.07;;
18360;SDS011;9308;48.550;9.108;2023-02-28T15:57:17;13.97;;;12.57;;
18360;SDS011;9308;48.550;9.108;2023-02-28T15:59:50;14.73;;;13.10;;
18360;SDS011;9308;48.550;9.108;2023-02-28T16:02:33;12.70;;;11.47;;
18360;SDS011;9308;48.550;9.108;2023-02-28T16:07:37;18.53;;;13.37;;
18360;SDS011;9308;48.550;9.108;2023-02-28T16:10:04;13.10;;;11.70;;
18360;SDS011;9308;48.550;9.108;2023-02-28T16:12:32;14.37;;;12.87;;
18360;SDS011;9308;48.550;9.108;2023-02-28T16:15:03;13.57;;;12.33;;
18360;SDS011;9308;48.550;9.108;2023-02-28T16:17:33;13.13;;;11.93;;
18360;SDS011;9308;48.550;9.108;2023-02-28T16:20:00;13.73;;;12.33;;
18360;SDS011;9308;48.550;9.108;2023-02-28T16:22:26;13.70;;;12.30;;
18360;SDS011;9308;48.550;9.108;2023-02-28T16:24:51;14.17;;;12.33;;
18360;SDS011;9308;48.550;9.108;2023-02-28T16:27:22;13.87;;;12.57;;
18360;SDS011;9308;48.550;9.108;2023-02-28T16:29:53;14.33;;;12.83;;
18360;SDS011;9308;48.550;9.108;2023-02-28T16:32:18;14.67;;;13.23;;
18360;SDS011;9308;48.550;9.108;2023-02-28T16:34:44;14.10;;;12.80;;
18360;SDS011;9308;48.550;9.108;2023-02-28T16:37:16;14.70;;;13.20;;
18360;SDS011;9308;48.550;9.108;2023-02-28T16:39:43;15.23;;;13.70;;
18360;SDS011;9308;48.550;9.108;2023-02-28T16:42:16;13.30;;;12.00;;
18360;SDS011;9308;48.550;9.108;2023-02-28T16:44:50;14.30;;;12.90;;
18360;SDS011;9308;48.550;9.108;2023-02-28T16:47:16;14.13;;;12.80;;
18360;SDS011;9308;48.550;9.108;2023-02-28T16:49:42;14.67;;;13.27;;
18360;SDS011;9308;48.550;9.108;2023-02-28T16:52:11;14.87;;;13.40;;
18360;SDS011;9308;48.550;9.108;2023-02-28T16:54:39;13.93;;;12.60;;
18360;SDS011;9308;48.550;9.108;2023-02-28T16:57:06;16.80;;;15.10;;
18360;SDS011;9308;48.550;9.108;2023-02-28T16:59:40;17.70;;;15.90;;
18360;SDS011;9308;48.550;9.108;2023-02-28T17:02:10;16.60;;;14.87;;
18360;SDS011;9308;48.550;9.108;2023-02-28T17:04:38;16.97;;;15.30;;
18360;SDS011;9308;48.550;9.108;2023-02-28T17:07:03;15.30;;;13.70;;
18360;SDS011;9308;48.550;9.108;2023-02-28T17:09:28;14.67;;;13.10;;
18360;SDS011;9308;48.550;9.108;2023-02-28T17:11:54;16.27;;;14.73;;
18360;SDS011;9308;48.550;9.108;2023-02-28T17:14:19;15.23;;;13.80;;
18360;SDS011;9308;48.550;9.108;2023-02-28T17:16:46;15.67;;;14.07;;
18360;SDS011;9308;48.550;9.108;2023-02-28T17:19:13;16.20;;;14.50;;
18360;SDS011;9308;48.550;9.108;2023-02-28T17:21:40;15.53;;;14.00;;
18360;SDS011;9308;48.550;9.108;2023-02-28T17:24:07;16.27;;;14.63;;
18360;SDS011;9308;48.550;9.108;2023-02-28T17:26:33;14.00;;;12.70;;
18360;SDS011;9308;48.550;9.108;2023-02-28T17:28:58;15.00;;;13.50;;
18360;SDS011;9308;48.550;9.108;2023-02-28T17:31:24;15.47;;;13.97;;